Time;durP1;ratioP1;P1;durP2;ratioP2;P2;SDS_P1;SDS_P2;PMS_P1;PMS_P2;Temp;Humidity;BMP_temperature;BMP_pressure;BME280_temperature;BME280_humidity;BME280_pressure;Samples;Min_cycle;Max_cycle;Signal;HPM_P1;HPM_P2
2023/10/21 00:00:14;;;;;;;25.98;16.13;;;;;;;9.46;100.00;97541.81;10127132;29;20060;-77
2023/10/21 00:05:18;;;;;;;28.45;15.15;;;;;;;9.48;100.00;97545.09;10118565;29;21535;-77
2023/10/21 00:10:21;;;;;;;24.23;14.13;;;;;;;9.58;100.00;97533.28;10115661;29;20066;-77
2023/10/21 00:15:25;;;;;;;23.55;13.20;;;;;;;9.66;100.00;97543.91;10110011;29;20579;-77
2023/10/21 00:20:28;;;;;;;23.95;12.32;;;;;;;9.76;100.00;97546.25;10108673;29;20088;-77
2023/10/21 00:25:31;;;;;;;17.85;11.02;;;;;;;9.79;100.00;97545.88;10099529;29;20167;-77
2023/10/21 00:30:35;;;;;;;15.57;11.18;;;;;;;9.79;100.00;97553.91;10105508;29;20056;-77
2023/10/21 00:35:38;;;;;;;13.82;10.15;;;;;;;9.77;100.00;97556.81;10093804;29;20044;-77
2023/10/21 00:40:50;;;;;;;16.30;10.38;;;;;;;9.76;100.00;97565.84;10112241;29;20053;-77
2023/10/21 00:45:54;;;;;;;28.05;11.48;;;;;;;9.84;100.00;97555.03;10102898;29;20049;-77
2023/10/21 00:50:57;;;;;;;20.55;11.25;;;;;;;9.82;100.00;97557.09;10108173;29;20600;-77
2023/10/21 00:56:00;;;;;;;12.32;8.68;;;;;;;9.90;100.00;97558.81;10102425;29;20048;-78
2023/10/21 01:01:07;;;;;;;15.95;8.65;;;;;;;9.93;100.00;97570.03;10108979;29;20067;-77
2023/10/21 01:06:10;;;;;;;10.90;8.23;;;;;;;9.98;100.00;97560.56;10095011;29;20605;-77
2023/10/21 01:11:14;;;;;;;12.30;8.90;;;;;;;9.99;100.00;97576.47;10098051;29;20063;-77
2023/10/21 01:16:18;;;;;;;13.60;9.20;;;;;;;9.91;100.00;97581.97;10116645;29;20558;-78
2023/10/21 01:21:21;;;;;;;13.60;9.13;;;;;;;10.09;100.00;97582.38;10100923;29;20177;-78
2023/10/21 01:26:25;;;;;;;11.15;8.50;;;;;;;10.14;100.00;97563.03;10107583;29;20064;-78
2023/10/21 01:31:29;;;;;;;13.13;9.18;;;;;;;10.16;100.00;97566.34;10101364;29;21184;-77
2023/10/21 01:36:32;;;;;;;10.27;9.18;;;;;;;10.19;100.00;97573.19;10108501;29;20055;-77
2023/10/21 01:41:36;;;;;;;10.85;8.27;;;;;;;10.22;100.00;97573.63;10101059;29;20057;-77
2023/10/21 01:46:39;;;;;;;15.27;8.60;;;;;;;10.32;100.00;97571.47;10095079;29;20585;-77
2023/10/21 01:51:42;;;;;;;8.85;7.95;;;;;;;10.35;100.00;97587.19;10107826;29;20049;-77
2023/10/21 01:56:46;;;;;;;10.57;8.23;;;;;;;10.41;100.00;97588.25;10110321;29;20075;-77
2023/10/21 02:01:49;;;;;;;11.65;9.05;;;;;;;10.44;100.00;97598.63;10113626;29;20059;-77
2023/10/21 02:06:53;;;;;;;10.77;8.80;;;;;;;10.48;100.00;97604.44;10099075;29;20052;-77
2023/10/21 02:11:57;;;;;;;12.02;9.75;;;;;;;10.49;100.00;97604.25;10106865;29;20044;-77
2023/10/21 02:17:00;;;;;;;15.20;9.82;;;;;;;10.52;100.00;97608.41;10117434;29;20064;-77
2023/10/21 02:22:03;;;;;;;12.57;10.50;;;;;;;10.61;100.00;97601.88;10121659;29;20063;-77
2023/10/21 02:27:09;;;;;;;12.93;9.63;;;;;;;10.60;100.00;97616.31;10129496;29;20060;-77
2023/10/21 02:32:13;;;;;;;10.82;8.60;;;;;;;10.57;100.00;97616.72;10112880;29;20048;-77
2023/10/21 02:37:16;;;;;;;10.93;7.30;;;;;;;10.57;100.00;97617.53;10126560;29;20057;-77
2023/10/21 02:42:21;;;;;;;9.93;7.78;;;;;;;10.57;100.00;97625.59;10126553;29;20052;-77
2023/10/21 02:47:24;;;;;;;10.85;7.30;;;;;;;10.57;100.00;97630.13;10117980;29;20135;-77
2023/10/21 02:52:26;;;;;;;13.02;8.70;;;;;;;10.57;100.00;97632.81;10109659;29;20056;-77
2023/10/21 02:57:31;;;;;;;10.40;8.75;;;;;;;10.59;100.00;97636.16;10116742;29;20049;-77
2023/10/21 03:02:34;;;;;;;13.77;9.45;;;;;;;10.59;100.00;97636.16;10098572;29;20495;-77
2023/10/21 03:07:37;;;;;;;11.02;8.73;;;;;;;10.62;100.00;97633.06;10115449;29;20072;-77
2023/10/21 03:12:42;;;;;;;13.35;9.60;;;;;;;10.63;100.00;97626.69;10113033;29;20537;-77
2023/10/21 03:17:46;;;;;;;14.18;10.02;;;;;;;10.69;100.00;97633.94;10113270;29;20060;-77
2023/10/21 03:22:49;;;;;;;14.45;11.65;;;;;;;10.66;100.00;97638.88;10148359;29;20048;-77
2023/10/21 03:27:54;;;;;;;14.60;12.02;;;;;;;10.79;100.00;97644.38;10161831;29;20048;-77
2023/10/21 03:32:56;;;;;;;16.23;12.45;;;;;;;10.65;100.00;97639.91;10118874;29;20051;-77
2023/10/21 03:37:59;;;;;;;17.58;12.93;;;;;;;10.80;100.00;97646.03;10112270;29;20089;-77
2023/10/21 03:43:04;;;;;;;18.30;12.70;;;;;;;10.75;100.00;97651.16;10111618;29;20044;-77
2023/10/21 03:48:07;;;;;;;15.45;12.50;;;;;;;10.79;100.00;97655.13;10122011;29;20052;-77
2023/10/21 03:53:11;;;;;;;14.95;11.88;;;;;;;10.83;100.00;97670.66;10126911;29;20079;-77
2023/10/21 03:58:16;;;;;;;14.73;11.20;;;;;;;10.95;100.00;97681.72;10127351;29;20078;-77
2023/10/21 04:03:19;;;;;;;13.98;10.40;;;;;;;10.97;100.00;97673.44;10119615;29;20068;-76
2023/10/21 04:08:23;;;;;;;15.07;11.02;;;;;;;11.03;100.00;97676.22;10117645;29;20048;-77
2023/10/21 04:13:27;;;;;;;11.15;8.23;;;;;;;11.12;100.00;97693.06;10113686;29;20056;-76
2023/10/21 04:18:30;;;;;;;9.32;7.78;;;;;;;11.18;100.00;97691.44;10115177;29;20453;-76
2023/10/21 04:23:33;;;;;;;9.40;7.30;;;;;;;11.18;100.00;97692.28;10107695;29;20059;-77
2023/10/21 04:28:37;;;;;;;10.50;7.10;;;;;;;11.12;100.00;97705.63;10092984;29;20051;-77
2023/10/21 04:33:40;;;;;;;6.47;5.45;;;;;;;11.12;100.00;97701.09;10123523;29;21715;-77
2023/10/21 04:38:44;;;;;;;4.47;4.07;;;;;;;11.20;100.00;97708.22;10140696;29;20056;-77
2023/10/21 04:43:50;;;;;;;4.28;3.88;;;;;;;11.29;100.00;97707.03;10131829;29;20052;-78
2023/10/21 04:48:53;;;;;;;3.47;3.15;;;;;;;11.31;100.00;97714.91;10120513;29;20501;-77
2023/10/21 04:53:57;;;;;;;3.63;3.17;;;;;;;11.28;100.00;97722.34;10128178;29;20045;-77
2023/10/21 04:59:01;;;;;;;6.13;3.40;;;;;;;11.29;100.00;97723.16;10125218;29;20059;-78
2023/10/21 05:04:07;;;;;;;3.88;3.25;;;;;;;11.28;100.00;97727.72;10105497;29;20281;-78
2023/10/21 05:09:11;;;;;;;6.65;3.53;;;;;;;11.28;100.00;97732.25;10124684;29;20059;-78
2023/10/21 05:14:15;;;;;;;4.75;3.55;;;;;;;11.28;100.00;97741.16;10127469;29;20059;-77
2023/10/21 05:19:18;;;;;;;4.10;3.70;;;;;;;11.28;100.00;97753.75;10125239;29;20484;-77
2023/10/21 05:24:24;;;;;;;6.90;4.20;;;;;;;11.28;100.00;97770.69;10127710;29;20629;-77
2023/10/21 05:29:28;;;;;;;5.15;4.13;;;;;;;11.31;100.00;97772.19;10125855;29;20554;-78
2023/10/21 05:34:31;;;;;;;6.63;4.53;;;;;;;11.32;100.00;97791.81;10124820;29;20052;-78
2023/10/21 05:39:34;;;;;;;8.15;5.55;;;;;;;11.28;100.00;97797.56;10123954;29;20056;-77
2023/10/21 05:44:39;;;;;;;6.78;5.22;;;;;;;11.20;100.00;97811.13;10123951;29;20136;-77
2023/10/21 05:49:51;;;;;;;10.80;5.97;;;;;;;11.65;100.00;97822.50;10117670;29;20052;-77
2023/10/21 05:54:54;;;;;;;11.57;6.45;;;;;;;12.06;100.00;97831.72;10115618;29;20059;-77
2023/10/21 05:59:58;;;;;;;8.57;4.78;;;;;;;11.86;100.00;97837.78;10118543;29;20047;-77
2023/10/21 06:05:01;;;;;;;7.75;5.63;;;;;;;11.46;100.00;97860.78;10125400;29;20522;-77
2023/10/21 06:10:04;;;;;;;8.65;6.10;;;;;;;11.39;100.00;97876.84;10128471;29;20711;-78
2023/10/21 06:15:10;;;;;;;12.73;7.63;;;;;;;11.43;100.00;97886.19;10129874;29;20052;-78
2023/10/21 06:20:13;;;;;;;11.05;7.60;;;;;;;11.41;100.00;97898.16;10109293;29;20048;-78
2023/10/21 06:25:16;;;;;;;6.70;5.55;;;;;;;11.38;100.00;97912.84;10123581;29;20082;-77
2023/10/21 06:30:20;;;;;;;9.18;7.22;;;;;;;11.38;100.00;97930.78;10110199;29;20538;-77
2023/10/21 06:35:23;;;;;;;8.15;7.32;;;;;;;11.30;100.00;97947.88;10120980;29;20044;-78
2023/10/21 06:40:27;;;;;;;12.82;9.07;;;;;;;11.11;100.00;97976.13;10129808;29;20051;-77
2023/10/21 06:45:48;;;;;;;6.95;6.10;;;;;;;11.08;100.00;97983.69;10131622;29;20844;-78
2023/10/21 06:50:51;;;;;;;8.55;7.43;;;;;;;11.26;100.00;97998.44;10123046;29;20412;-78
2023/10/21 06:55:54;;;;;;;6.20;5.60;;;;;;;11.17;100.00;98010.31;10121233;29;20280;-77
2023/10/21 07:00:59;;;;;;;8.40;6.57;;;;;;;10.80;100.00;98030.00;10121647;29;20548;-77
2023/10/21 07:06:01;;;;;;;7.75;6.00;;;;;;;10.95;100.00;98056.88;10127284;29;20082;-78
2023/10/21 07:11:04;;;;;;;6.28;5.57;;;;;;;11.23;100.00;98054.44;10118075;29;20887;-78
2023/10/21 07:16:10;;;;;;;8.13;5.90;;;;;;;11.15;100.00;98066.09;10119485;29;20527;-78
2023/10/21 07:21:13;;;;;;;7.88;4.32;;;;;;;11.19;100.00;98072.78;10129072;29;20060;-78
2023/10/21 07:26:16;;;;;;;6.13;4.35;;;;;;;11.39;100.00;98099.09;10138143;29;20056;-78
2023/10/21 07:31:21;;;;;;;4.78;4.28;;;;;;;11.40;100.00;98108.81;10136914;29;20062;-78
2023/10/21 07:36:24;;;;;;;5.40;4.90;;;;;;;11.75;100.00;98114.47;10124333;29;20155;-78
2023/10/21 07:41:27;;;;;;;6.10;5.05;;;;;;;11.81;100.00;98135.25;10138437;29;20075;-78
2023/10/21 07:46:31;;;;;;;7.57;5.22;;;;;;;11.80;100.00;98145.16;10139585;29;20068;-78
2023/10/21 07:51:34;;;;;;;6.30;4.78;;;;;;;12.03;100.00;98154.97;10117156;29;20166;-78
2023/10/21 07:56:37;;;;;;;8.10;6.63;;;;;;;12.08;100.00;98158.75;10133286;29;20063;-78
2023/10/21 08:01:41;;;;;;;8.02;6.75;;;;;;;12.02;100.00;98172.16;10139274;29;20044;-79
2023/10/21 08:06:46;;;;;;;10.30;7.00;;;;;;;11.93;100.00;98190.25;10131354;29;20578;-77
2023/10/21 08:11:49;;;;;;;14.15;9.18;;;;;;;12.18;100.00;98201.53;10131962;29;20107;-78
2023/10/21 08:16:53;;;;;;;11.65;10.32;;;;;;;12.21;100.00;98211.94;10120225;29;20182;-78
2023/10/21 08:21:56;;;;;;;12.75;11.18;;;;;;;12.36;100.00;98217.31;10105536;29;20732;-78
2023/10/21 08:26:59;;;;;;;14.25;11.07;;;;;;;12.53;100.00;98218.78;10116265;29;20045;-78
2023/10/21 08:32:03;;;;;;;12.07;10.60;;;;;;;12.45;100.00;98226.09;10112331;29;21296;-79
2023/10/21 08:37:07;;;;;;;16.25;11.50;;;;;;;12.40;100.00;98226.69;10127626;29;20053;-78
2023/10/21 08:42:10;;;;;;;15.52;10.68;;;;;;;12.70;100.00;98240.91;10132975;29;20056;-78
2023/10/21 08:47:17;;;;;;;10.48;9.20;;;;;;;12.87;100.00;98249.59;10129068;29;20487;-78
2023/10/21 08:52:20;;;;;;;8.57;7.35;;;;;;;12.95;100.00;98260.25;10136069;29;20040;-79
2023/10/21 08:57:23;;;;;;;8.02;6.97;;;;;;;13.20;100.00;98265.25;10141247;29;21174;-78
2023/10/21 09:02:28;;;;;;;8.02;6.88;;;;;;;13.18;100.00;98275.41;10131595;29;20060;-78
2023/10/21 09:07:45;;;;;;;11.70;7.30;;;;;;;13.36;100.00;98281.19;10130269;29;20071;-77
2023/10/21 09:12:48;;;;;;;7.18;5.30;;;;;;;13.73;100.00;98291.88;10129086;29;20051;-76
2023/10/21 09:17:53;;;;;;;4.88;3.20;;;;;;;13.68;100.00;98300.56;10114601;29;20512;-77
2023/10/21 09:23:05;;;;;;;3.33;2.33;;;;;;;13.80;100.00;98309.81;10109341;29;21232;-76
2023/10/21 09:28:08;;;;;;;2.85;2.20;;;;;;;14.08;100.00;98317.06;10125469;29;20111;-77
2023/10/21 09:33:14;;;;;;;4.25;2.00;;;;;;;14.21;100.00;98327.13;10122864;29;20044;-77
2023/10/21 09:38:19;;;;;;;2.60;0.95;;;;;;;14.48;100.00;98328.13;10124623;29;20055;-78
2023/10/21 09:43:24;;;;;;;1.38;0.80;;;;;;;14.34;100.00;98332.59;10115178;29;20056;-77
2023/10/21 09:48:30;;;;;;;0.75;0.47;;;;;;;14.52;100.00;98341.03;10113094;29;20535;-77
2023/10/21 09:53:39;;;;;;;1.13;0.98;;;;;;;14.72;100.00;98343.00;10121322;29;20523;-77
2023/10/21 09:58:44;;;;;;;0.38;0.35;;;;;;;14.61;100.00;98341.72;10136431;29;20152;-77
2023/10/21 10:03:48;;;;;;;1.92;0.30;;;;;;;14.93;96.82;98348.31;10137278;29;20070;-77
2023/10/21 10:08:52;;;;;;;1.20;0.50;;;;;;;15.13;95.15;98359.19;10127682;29;20126;-77
2023/10/21 10:13:55;;;;;;;1.17;0.30;;;;;;;14.92;90.90;98359.31;10115149;29;20052;-77
2023/10/21 10:18:59;;;;;;;1.70;0.40;;;;;;;14.61;91.13;98366.03;10126521;29;20123;-76
2023/10/21 10:24:04;;;;;;;0.93;0.40;;;;;;;14.15;92.77;98372.78;10126726;29;20055;-76
2023/10/21 10:29:18;;;;;;;0.55;0.20;;;;;;;13.92;94.26;98383.78;10131687;29;20056;-76
2023/10/21 10:34:23;;;;;;;1.80;0.43;;;;;;;13.58;94.75;98399.88;10133701;29;20072;-76
2023/10/21 10:39:39;;;;;;;1.65;0.50;;;;;;;13.14;92.32;98428.59;10131757;29;20443;-77
2023/10/21 10:44:43;;;;;;;0.70;0.30;;;;;;;13.15;89.70;98427.56;10119169;29;20049;-77
2023/10/21 10:49:57;;;;;;;0.52;0.50;;;;;;;13.77;89.97;98433.44;10120407;29;20092;-77
2023/10/21 10:55:02;;;;;;;0.60;0.30;;;;;;;13.77;87.51;98428.06;10112765;29;20048;-77
2023/10/21 11:00:10;;;;;;;0.63;0.47;;;;;;;14.29;84.56;98445.75;10104245;29;20211;-76
2023/10/21 11:05:20;;;;;;;0.63;0.30;;;;;;;14.88;81.78;98458.06;10121131;29;20056;-76
2023/10/21 11:10:25;;;;;;;0.82;0.30;;;;;;;14.59;83.15;98454.56;10112243;29;20046;-76
2023/10/21 11:15:29;;;;;;;0.43;0.20;;;;;;;14.65;83.11;98464.56;10107693;29;20155;-75
2023/10/21 11:20:34;;;;;;;0.52;0.43;;;;;;;14.35;78.94;98469.31;10112888;29;20060;-76
2023/10/21 11:25:39;;;;;;;0.65;0.20;;;;;;;14.58;75.62;98480.72;10113385;29;20068;-77
2023/10/21 11:30:43;;;;;;;2.22;0.30;;;;;;;14.90;74.58;98478.44;10107912;29;20513;-77
2023/10/21 11:35:48;;;;;;;0.17;0.17;;;;;;;16.47;69.38;98463.13;10112912;29;20052;-77
2023/10/21 11:40:51;;;;;;;0.30;0.20;;;;;;;17.67;64.75;98480.78;10120017;29;20088;-77
2023/10/21 11:45:55;;;;;;;0.82;0.22;;;;;;;17.59;62.67;98497.31;10114983;29;20544;-77
2023/10/21 11:51:00;;;;;;;0.30;0.10;;;;;;;16.59;65.22;98504.81;10106556;29;20045;-77
2023/10/21 12:39:38;;;;;;;0.65;0.20;;;;;;;15.30;63.67;98570.59;10135013;29;20055;-78
2023/10/21 12:44:47;;;;;;;0.20;0.20;;;;;;;14.76;65.99;98582.94;10132255;29;20736;-77
2023/10/21 12:49:55;;;;;;;0.60;0.40;;;;;;;15.81;64.36;98582.97;10121863;29;20452;-77
2023/10/21 12:55:00;;;;;;;0.35;0.22;;;;;;;17.77;57.49;98566.34;10128073;29;20055;-77
2023/10/21 13:00:05;;;;;;;0.38;0.20;;;;;;;20.22;49.46;98566.13;10129950;29;20056;-77
2023/10/21 13:05:08;;;;;;;0.70;0.20;;;;;;;19.56;49.16;98577.88;10126814;29;20080;-78
2023/10/21 13:10:13;;;;;;;0.50;0.10;;;;;;;19.08;50.18;98587.50;10128127;29;20194;-78
2023/10/21 13:15:16;;;;;;;0.57;0.20;;;;;;;18.80;51.01;98583.34;10133038;29;20039;-78
2023/10/21 13:20:19;;;;;;;1.15;0.38;;;;;;;17.38;55.95;98579.00;10113455;29;20052;-78
2023/10/21 13:25:23;;;;;;;1.23;0.32;;;;;;;16.33;59.18;98585.03;10123273;29;20543;-78
2023/10/21 13:30:34;;;;;;;0.93;0.10;;;;;;;15.83;61.34;98597.16;10122193;29;20142;-77
2023/10/21 13:35:37;;;;;;;0.65;0.45;;;;;;;15.80;62.50;98598.41;10119135;29;20677;-77
2023/10/21 13:40:41;;;;;;;0.90;0.40;;;;;;;15.92;62.65;98599.47;10132946;29;20052;-77
2023/10/21 13:45:44;;;;;;;1.02;0.40;;;;;;;18.28;57.71;98588.09;10132892;29;20052;-77
2023/10/21 13:50:50;;;;;;;2.58;0.30;;;;;;;18.93;54.20;98581.59;10132068;29;20060;-77
2023/10/21 13:55:54;;;;;;;0.50;0.22;;;;;;;18.37;57.15;98602.25;10127472;29;20075;-77
2023/10/21 14:00:59;;;;;;;1.35;0.30;;;;;;;18.16;55.12;98610.75;10133099;29;20052;-77
2023/10/21 14:06:04;;;;;;;0.80;0.40;;;;;;;17.83;55.93;98623.38;10136793;29;20048;-75
2023/10/21 14:11:10;;;;;;;3.95;0.35;;;;;;;17.35;54.79;98620.16;10134828;29;20140;-77
2023/10/21 14:16:14;;;;;;;1.25;0.30;;;;;;;16.31;58.01;98621.50;10136837;29;20116;-78
2023/10/21 14:21:17;;;;;;;1.50;0.30;;;;;;;15.76;60.80;98637.72;10120971;29;20079;-78
2023/10/21 14:26:23;;;;;;;2.78;0.45;;;;;;;15.88;61.83;98641.53;10135072;29;20452;-77
2023/10/21 14:31:29;;;;;;;0.70;0.20;;;;;;;15.92;61.66;98644.66;10131624;29;20071;-77
2023/10/21 14:36:32;;;;;;;1.08;0.38;;;;;;;15.63;61.83;98652.03;10126731;29;20188;-78
2023/10/21 14:41:37;;;;;;;1.85;0.50;;;;;;;15.45;62.48;98652.53;10125475;29;20536;-76
2023/10/21 14:46:40;;;;;;;2.53;0.60;;;;;;;15.65;63.45;98663.47;10130869;29;20044;-78
2023/10/21 14:51:45;;;;;;;4.15;0.70;;;;;;;15.72;63.22;98665.41;10133770;29;20059;-76
2023/10/21 14:56:49;;;;;;;2.65;0.55;;;;;;;15.60;63.82;98668.63;10118821;29;20055;-76
2023/10/21 15:01:52;;;;;;;1.98;0.30;;;;;;;15.41;64.34;98677.47;10127459;29;20050;-76
2023/10/21 15:06:55;;;;;;;3.22;0.95;;;;;;;15.54;63.53;98674.84;10138045;29;20063;-76
2023/10/21 15:12:00;;;;;;;2.67;0.82;;;;;;;15.73;62.55;98667.06;10125902;29;20055;-76
2023/10/21 15:17:03;;;;;;;1.95;0.60;;;;;;;15.21;62.93;98680.81;10121424;29;20055;-76
2023/10/21 15:22:07;;;;;;;4.22;0.63;;;;;;;15.06;63.99;98688.19;10108063;29;20049;-76
2023/10/21 15:27:11;;;;;;;3.17;0.80;;;;;;;14.89;64.93;98682.22;10123408;29;20119;-76
2023/10/21 15:32:14;;;;;;;5.07;0.73;;;;;;;14.87;64.67;98680.75;10125661;29;20316;-79
2023/10/21 15:37:18;;;;;;;4.20;0.80;;;;;;;14.37;64.37;98694.09;10119520;29;20053;-79
2023/10/21 15:42:22;;;;;;;5.13;1.42;;;;;;;14.57;63.91;98705.16;10116763;29;20051;-79
2023/10/21 15:47:25;;;;;;;1.42;0.60;;;;;;;14.32;64.36;98718.16;10114529;29;20048;-79
2023/10/21 15:52:28;;;;;;;3.55;1.23;;;;;;;14.41;64.09;98725.13;10143752;29;20054;-78
2023/10/21 15:57:34;;;;;;;2.67;0.88;;;;;;;14.25;63.36;98719.91;10165146;29;20040;-77
2023/10/21 16:02:38;;;;;;;3.92;1.20;;;;;;;14.60;62.46;98726.41;10153250;29;20047;-77
2023/10/21 16:07:41;;;;;;;5.32;1.13;;;;;;;14.60;60.73;98738.03;10120601;29;20067;-81
2023/10/21 16:13:01;;;;;;;4.88;0.90;;;;;;;14.58;60.56;98741.97;10127855;29;20141;-77
2023/10/21 16:18:03;;;;;;;3.60;1.55;;;;;;;14.47;60.20;98745.97;10130687;29;20513;-79
2023/10/21 16:23:06;;;;;;;3.13;0.77;;;;;;;14.46;60.68;98765.09;10129312;29;20091;-79
2023/10/21 16:28:11;;;;;;;4.63;0.95;;;;;;;14.37;60.97;98767.00;10126415;29;20045;-78
2023/10/21 16:33:14;;;;;;;3.97;0.68;;;;;;;14.38;61.06;98763.31;10122567;29;20448;-78
2023/10/21 16:38:19;;;;;;;4.78;1.27;;;;;;;14.19;61.59;98772.81;10117466;29;20052;-79
2023/10/21 16:43:23;;;;;;;3.67;0.90;;;;;;;14.02;62.55;98774.88;10115293;29;20055;-78
2023/10/21 16:48:26;;;;;;;2.85;0.90;;;;;;;13.80;62.87;98786.59;10123612;29;20074;-78
2023/10/21 16:53:31;;;;;;;3.40;0.98;;;;;;;13.67;64.29;98785.34;10110359;29;20071;-78
2023/10/21 16:58:35;;;;;;;3.20;1.00;;;;;;;13.54;64.24;98798.59;10115903;29;20051;-78
2023/10/21 17:03:38;;;;;;;2.22;1.02;;;;;;;13.47;63.44;98812.00;10095764;29;20044;-79
2023/10/21 17:08:42;;;;;;;4.90;0.88;;;;;;;13.59;62.29;98823.19;10126054;29;20123;-79
2023/10/21 17:13:47;;;;;;;6.40;1.08;;;;;;;13.65;61.66;98822.44;10122613;29;20063;-78
2023/10/21 17:18:49;;;;;;;3.25;1.00;;;;;;;13.77;61.13;98825.56;10134640;29;20490;-79
2023/10/21 17:23:53;;;;;;;2.33;1.45;;;;;;;13.63;60.82;98840.69;10139490;29;20047;-78
2023/10/21 17:28:57;;;;;;;1.65;0.80;;;;;;;13.48;61.49;98840.63;10133751;29;20052;-80
2023/10/21 17:34:00;;;;;;;4.70;1.35;;;;;;;13.41;61.38;98846.91;10130532;29;20051;-80
2023/10/21 17:39:04;;;;;;;4.28;1.10;;;;;;;13.25;62.16;98847.88;10132379;29;20059;-78
2023/10/21 17:44:08;;;;;;;2.33;1.55;;;;;;;13.05;63.54;98856.41;10127740;29;20058;-79
2023/10/21 17:49:12;;;;;;;4.18;0.90;;;;;;;12.79;65.39;98858.56;10124547;29;20056;-79
2023/10/21 17:54:15;;;;;;;3.72;1.02;;;;;;;12.64;66.46;98863.84;10129752;29;20048;-79
2023/10/21 17:59:21;;;;;;;3.63;0.90;;;;;;;12.47;67.93;98862.22;10125917;29;20053;-80
2023/10/21 18:04:24;;;;;;;4.13;1.33;;;;;;;12.42;69.19;98859.22;10109796;29;20428;-80
2023/10/21 18:09:27;;;;;;;4.65;1.20;;;;;;;12.30;70.07;98859.56;10119480;29;20055;-80
2023/10/21 18:14:31;;;;;;;2.70;1.23;;;;;;;12.19;71.04;98857.22;10109779;29;20080;-79
2023/10/21 18:19:35;;;;;;;4.07;1.27;;;;;;;12.12;71.57;98854.41;10125049;29;20044;-79
2023/10/21 18:24:39;;;;;;;3.72;1.20;;;;;;;12.01;71.88;98854.72;10114597;29;20066;-79
2023/10/21 18:29:43;;;;;;;3.08;1.27;;;;;;;12.00;71.61;98853.06;10120425;29;20040;-79
2023/10/21 18:34:46;;;;;;;5.07;1.33;;;;;;;12.15;70.30;98854.03;10109615;29;20436;-79
2023/10/21 18:39:49;;;;;;;4.55;1.40;;;;;;;12.23;69.51;98853.19;10138880;29;20044;-79
2023/10/21 18:44:53;;;;;;;7.00;1.42;;;;;;;12.28;69.31;98861.59;10141235;29;21513;-78
2023/10/21 18:49:56;;;;;;;2.38;1.17;;;;;;;12.26;69.34;98865.44;10138386;29;20747;-78
2023/10/21 18:54:59;;;;;;;6.68;1.23;;;;;;;12.27;69.13;98872.53;10133874;29;20064;-77
2023/10/21 19:00:04;;;;;;;4.32;1.20;;;;;;;12.30;68.98;98874.91;10125646;29;20067;-79
2023/10/21 19:05:08;;;;;;;5.47;1.42;;;;;;;12.25;68.98;98874.53;10133088;29;20078;-79
2023/10/21 19:10:12;;;;;;;2.08;0.93;;;;;;;12.28;68.54;98880.44;10128227;29;20043;-79
2023/10/21 19:15:16;;;;;;;5.60;1.45;;;;;;;12.42;68.36;98886.13;10119049;29;20060;-78
2023/10/21 19:20:19;;;;;;;4.13;1.13;;;;;;;12.45;67.91;98889.34;10120085;29;20060;-78
2023/10/21 19:25:23;;;;;;;4.00;1.23;;;;;;;12.47;67.77;98895.38;10109303;29;20052;-79
2023/10/21 19:30:28;;;;;;;4.85;1.75;;;;;;;12.49;67.91;98893.34;10119485;29;20461;-79
2023/10/21 19:35:31;;;;;;;6.65;1.20;;;;;;;12.42;67.93;98904.97;10110167;29;20044;-80
2023/10/21 19:40:37;;;;;;;3.38;1.40;;;;;;;12.45;68.19;98900.13;10115080;29;20047;-80
2023/10/21 19:45:42;;;;;;;4.70;1.33;;;;;;;12.46;67.95;98909.03;10116957;29;20068;-79
2023/10/21 19:50:45;;;;;;;6.65;1.10;;;;;;;12.55;67.56;98911.50;10127728;29;20056;-79
2023/10/21 19:55:54;;;;;;;2.75;1.13;;;;;;;12.47;67.61;98911.53;10128895;29;20076;-80
2023/10/21 20:01:04;;;;;;;5.35;1.00;;;;;;;12.54;67.44;98914.38;10130273;29;20055;-80
2023/10/21 20:06:07;;;;;;;2.88;1.33;;;;;;;12.59;66.94;98912.84;10140128;29;21190;-79
2023/10/21 20:11:11;;;;;;;7.90;1.15;;;;;;;12.61;67.00;98918.06;10136990;29;20044;-80
2023/10/21 20:16:16;;;;;;;2.00;0.80;;;;;;;12.52;66.99;98919.94;10128381;29;20496;-80
2023/10/21 20:21:20;;;;;;;5.28;1.02;;;;;;;12.39;67.30;98925.00;10134375;29;20063;-80
2023/10/21 20:26:23;;;;;;;5.43;1.45;;;;;;;12.56;67.11;98940.13;10126872;29;20451;-78
2023/10/21 20:31:31;;;;;;;3.85;1.00;;;;;;;12.51;67.14;98936.28;10129158;29;20060;-79
2023/10/21 20:36:34;;;;;;;3.17;1.10;;;;;;;12.39;67.56;98933.91;10134114;29;20127;-80
2023/10/21 20:41:39;;;;;;;3.47;1.10;;;;;;;12.43;67.67;98941.69;10127163;29;20411;-80
2023/10/21 20:46:43;;;;;;;4.88;1.20;;;;;;;12.41;67.49;98938.31;10144524;29;20051;-79
2023/10/21 20:51:47;;;;;;;3.22;1.00;;;;;;;12.37;67.77;98943.22;10142603;29;20055;-80
2023/10/21 20:56:51;;;;;;;2.95;1.02;;;;;;;12.41;67.82;98952.63;10130119;29;20151;-78
2023/10/21 21:01:56;;;;;;;2.92;1.40;;;;;;;12.35;67.59;98938.00;10122267;29;20064;-78
2023/10/21 21:06:59;;;;;;;7.40;1.88;;;;;;;12.37;67.74;98948.59;10115928;29;20052;-79
2023/10/21 21:12:02;;;;;;;6.57;1.15;;;;;;;12.27;68.42;98947.91;10122873;29;20053;-79
2023/10/21 21:17:08;;;;;;;2.90;1.10;;;;;;;12.30;68.21;98953.81;10116699;29;20054;-82
2023/10/21 21:22:11;;;;;;;4.90;1.20;;;;;;;12.35;68.08;98948.75;10112001;29;20055;-79
2023/10/21 21:27:14;;;;;;;5.30;1.00;;;;;;;12.24;68.41;98959.84;10111396;29;20053;-79
2023/10/21 21:32:18;;;;;;;3.85;1.15;;;;;;;12.30;68.38;98947.59;10117369;29;20052;-80
2023/10/21 21:37:21;;;;;;;2.55;1.00;;;;;;;12.33;67.96;98947.25;10119203;29;20063;-79
2023/10/21 21:42:24;;;;;;;4.25;1.17;;;;;;;12.36;67.07;98963.88;10112699;29;20056;-79
2023/10/21 21:47:29;;;;;;;8.82;1.25;;;;;;;12.41;67.07;98955.31;10118213;29;20051;-80
2023/10/21 21:52:33;;;;;;;3.08;0.80;;;;;;;12.40;66.78;98948.25;10117690;29;20054;-78
2023/10/21 21:57:36;;;;;;;2.53;0.90;;;;;;;12.53;66.11;98943.19;10123948;29;20448;-79
2023/10/21 22:02:40;;;;;;;6.35;0.88;;;;;;;12.43;66.93;98942.53;10124508;29;20122;-78
2023/10/21 22:07:43;;;;;;;2.45;0.75;;;;;;;12.34;67.05;98941.69;10123773;29;20055;-79
2023/10/21 22:12:46;;;;;;;8.40;1.42;;;;;;;12.44;66.75;98941.50;10117200;29;20151;-80
2023/10/21 22:17:51;;;;;;;5.15;1.05;;;;;;;12.32;67.00;98945.56;10116142;29;20048;-78
2023/10/21 22:22:54;;;;;;;3.90;0.80;;;;;;;12.28;67.03;98947.75;10103520;29;20052;-80
2023/10/21 22:28:01;;;;;;;4.10;1.10;;;;;;;12.52;66.19;98940.66;10103274;29;20051;-79
2023/10/21 22:33:05;;;;;;;3.75;0.88;;;;;;;12.33;66.56;98936.47;10115239;29;20487;-80
2023/10/21 22:38:08;;;;;;;3.47;0.73;;;;;;;12.33;66.16;98944.56;10116555;29;20060;-79
2023/10/21 22:43:11;;;;;;;3.13;1.08;;;;;;;12.57;65.80;98952.59;10115986;29;20741;-80
2023/10/21 22:48:15;;;;;;;4.93;0.90;;;;;;;12.47;66.01;98949.22;10111226;29;20052;-80
2023/10/21 22:53:19;;;;;;;4.32;0.88;;;;;;;12.44;66.32;98946.06;10096726;29;20052;-80
2023/10/21 22:58:22;;;;;;;1.58;0.80;;;;;;;12.28;66.25;98947.75;10112343;29;21056;-80
2023/10/21 23:03:26;;;;;;;4.40;0.70;;;;;;;12.34;66.12;98951.59;10111408;29;21069;-79
2023/10/21 23:08:37;;;;;;;3.17;0.80;;;;;;;12.29;66.18;98960.22;10103518;29;20052;-79
2023/10/21 23:13:42;;;;;;;3.67;0.98;;;;;;;12.25;65.81;98960.69;10107628;29;20045;-79
2023/10/21 23:18:46;;;;;;;2.13;0.57;;;;;;;12.21;66.21;98962.03;10112018;29;20107;-79
2023/10/21 23:23:49;;;;;;;11.35;1.25;;;;;;;12.19;65.90;98966.75;10108484;29;20063;-79
2023/10/21 23:28:52;;;;;;;4.70;0.68;;;;;;;12.16;65.57;98958.00;10111283;29;20071;-79
2023/10/21 23:33:57;;;;;;;6.80;1.40;;;;;;;12.17;66.34;98961.53;10113166;29;20044;-80
2023/10/21 23:39:00;;;;;;;2.30;0.70;;;;;;;12.10;66.44;98956.00;10135197;29;20419;-80
2023/10/21 23:44:03;;;;;;;3.92;2.00;;;;;;;12.08;66.79;98962.53;10134532;29;20052;-80
2023/10/21 23:49:07;;;;;;;4.30;1.02;;;;;;;12.00;67.39;98962.53;10131654;29;21040;-77
2023/10/21 23:54:10;;;;;;;4.05;0.85;;;;;;;11.96;67.62;98964.75;10162715;29;20055;-78
2023/10/21 23:59:13;;;;;;;6.22;1.08;;;;;;;11.81;68.01;98955.63;10149797;29;20094;-79
